createdAt,value
2023-02-27T00:00:23.736Z,70.02
2023-02-27T00:03:08.272Z,70.01
2023-02-27T00:05:53.721Z,70.95
2023-02-27T00:08:40.315Z,71.04
2023-02-27T00:11:28.365Z,70.95
2023-02-27T00:14:15.824Z,72.01
2023-02-27T00:17:02.296Z,71.97
2023-02-27T00:19:42.678Z,72.54
2023-02-27T00:22:29.279Z,72.99
2023-02-27T00:25:25.708Z,73.02
2023-02-27T00:28:14.077Z,73.03
2023-02-27T00:30:53.153Z,72.53
2023-02-27T00:33:42.083Z,72.93
2023-02-27T00:36:25.707Z,73.47
2023-02-27T00:39:15.368Z,73.72
2023-02-27T00:41:59.123Z,73.70
2023-02-27T00:44:42.076Z,74.55
2023-02-27T00:47:20.137Z,74.97
2023-02-27T00:50:03.061Z,75.20
2023-02-27T00:52:48.315Z,75.45
2023-02-27T00:55:34.092Z,76.22
2023-02-27T00:58:17.017Z,77.00
2023-02-27T01:01:05.901Z,77.56
2023-02-27T01:03:49.080Z,78.38
2023-02-27T01:06:31.949Z,78.66
2023-02-27T01:09:11.875Z,79.59
2023-02-27T01:12:01.752Z,79.90
2023-02-27T01:14:48.505Z,81.46
2023-02-27T01:17:40.462Z,81.27
2023-02-27T01:20:19.886Z,82.72
2023-02-27T01:23:06.850Z,82.38
2023-02-27T01:25:49.099Z,83.93
2023-02-27T01:28:45.974Z,83.43
2023-02-27T01:31:29.710Z,84.37
2023-02-27T01:34:04.963Z,83.83
2023-02-27T01:36:45.248Z,83.95
2023-02-27T01:39:32.961Z,83.14
2023-02-27T01:42:39.543Z,84.59
2023-02-27T01:45:30.994Z,84.55
2023-02-27T01:48:45.414Z,85.23
2023-02-27T01:51:36.593Z,85.24
2023-02-27T01:54:21.384Z,86.11
2023-02-27T01:57:19.247Z,85.28
2023-02-27T02:00:06.515Z,85.93
2023-02-27T02:03:06.300Z,85.43
2023-02-27T02:06:03.523Z,86.07
2023-02-27T02:09:03.306Z,86.10
2023-02-27T02:11:52.425Z,85.71
2023-02-27T02:14:35.289Z,84.87
2023-02-27T02:17:40.317Z,85.01
2023-02-27T02:21:15.276Z,84.79
2023-02-27T02:24:36.991Z,84.79
2023-02-27T02:27:30.779Z,84.76
2023-02-27T02:30:18.933Z,84.49
2023-02-27T02:33:33.715Z,84.50
2023-02-27T02:36:34.621Z,83.98
2023-02-27T02:39:45.018Z,83.84
2023-02-27T02:42:34.173Z,84.23
2023-02-27T02:45:51.008Z,84.38
2023-02-27T02:48:35.648Z,83.63
2023-02-27T02:51:33.526Z,83.02
2023-02-27T02:54:31.448Z,83.61
2023-02-27T02:57:32.547Z,82.83
2023-02-27T03:00:34.483Z,83.25
2023-02-27T03:03:23.103Z,83.08
2023-02-27T03:06:35.194Z,82.67
2023-02-27T03:09:49.652Z,82.95
2023-02-27T03:12:45.085Z,82.00
2023-02-27T03:15:55.560Z,82.29
2023-02-27T03:18:41.309Z,82.90
2023-02-27T03:21:52.502Z,83.14
2023-02-27T03:24:48.645Z,83.12
2023-02-27T03:27:42.568Z,82.62
2023-02-27T03:30:48.157Z,83.09
2023-02-27T03:33:28.624Z,84.04
2023-02-27T03:36:37.803Z,84.65
2023-02-27T03:40:01.530Z,84.05
2023-02-27T03:43:06.149Z,82.83
2023-02-27T03:46:12.864Z,82.75
2023-02-27T03:48:58.886Z,83.14
2023-02-27T03:51:47.357Z,82.77
2023-02-27T03:54:46.090Z,82.09
2023-02-27T03:57:29.355Z,80.09
2023-02-27T04:00:37.726Z,77.99
2023-02-27T04:03:24.326Z,78.12
2023-02-27T04:06:29.393Z,78.45
2023-02-27T04:09:43.252Z,78.66
2023-02-27T04:13:19.532Z,77.54
2023-02-27T04:16:51.601Z,78.38
2023-02-27T04:19:45.313Z,79.02
2023-02-27T04:22:39.148Z,78.50
2023-02-27T04:25:22.515Z,78.72
2023-02-27T04:28:40.522Z,78.58
2023-02-27T04:31:51.527Z,79.10
2023-02-27T04:34:50.631Z,78.89
2023-02-27T04:37:58.257Z,79.53
2023-02-27T04:41:03.341Z,80.23
2023-02-27T04:43:49.505Z,78.20
2023-02-27T04:46:41.500Z,79.46
2023-02-27T04:49:41.684Z,79.01
2023-02-27T04:52:33.147Z,79.77
2023-02-27T04:55:30.000Z,79.82
2023-02-27T04:58:29.255Z,79.80
2023-02-27T05:01:22.522Z,80.08
2023-02-27T05:04:20.500Z,79.60
2023-02-27T05:07:10.156Z,79.75
2023-02-27T05:10:20.734Z,78.04
2023-02-27T05:13:16.498Z,77.83
2023-02-27T05:16:19.519Z,77.41
2023-02-27T05:19:04.729Z,76.36
2023-02-27T05:22:03.303Z,75.96
2023-02-27T05:25:30.764Z,74.42
2023-02-27T05:28:28.398Z,75.35
2023-02-27T05:31:24.537Z,75.07
2023-02-27T05:34:37.551Z,75.37
2023-02-27T05:37:42.169Z,75.14
2023-02-27T05:40:27.441Z,75.89
2023-02-27T05:43:21.477Z,75.37
2023-02-27T05:46:13.687Z,75.85
2023-02-27T05:49:17.626Z,76.20
2023-02-27T05:52:05.614Z,75.98
2023-02-27T05:55:00.875Z,75.92
2023-02-27T05:58:02.620Z,76.12
2023-02-27T06:00:52.745Z,75.82
2023-02-27T06:03:43.574Z,76.23
2023-02-27T06:06:26.787Z,75.81
2023-02-27T06:09:13.078Z,75.76
2023-02-27T06:12:09.053Z,75.45
2023-02-27T06:14:58.498Z,75.76
2023-02-27T06:17:43.342Z,75.87
2023-02-27T06:20:50.136Z,75.45
2023-02-27T06:23:38.489Z,74.87
2023-02-27T06:26:28.633Z,75.68
2023-02-27T06:29:18.494Z,76.08
2023-02-27T06:32:18.555Z,73.86
2023-02-27T06:35:02.474Z,73.36
2023-02-27T06:37:52.672Z,73.89
2023-02-27T06:40:35.490Z,73.36
2023-02-27T06:43:24.538Z,74.53
2023-02-27T06:46:18.480Z,72.54
2023-02-27T06:49:00.492Z,73.24
2023-02-27T06:51:51.808Z,73.17
2023-02-27T06:54:33.169Z,73.00
2023-02-27T06:57:08.566Z,72.06
2023-02-27T06:59:57.849Z,71.95
2023-02-27T07:02:48.824Z,72.31
2023-02-27T07:05:40.724Z,72.87
2023-02-27T07:08:23.486Z,72.15
2023-02-27T07:11:05.544Z,70.85
2023-02-27T07:13:54.999Z,71.51
2023-02-27T07:16:51.007Z,72.03
2023-02-27T07:19:39.516Z,72.47
2023-02-27T07:22:17.649Z,72.65
2023-02-27T07:24:58.703Z,68.27
2023-02-27T07:27:48.561Z,68.73
2023-02-27T07:30:36.535Z,68.17
2023-02-27T07:36:12.570Z,65.26
2023-02-27T07:39:08.343Z,63.35
2023-02-27T07:41:54.869Z,64.50
2023-02-27T07:44:43.287Z,64.62
2023-02-27T07:47:30.341Z,62.90
2023-02-27T07:50:14.251Z,62.37
2023-02-27T07:53:08.533Z,60.87
2023-02-27T07:55:48.591Z,59.67
2023-02-27T07:58:34.897Z,59.86
2023-02-27T08:01:27.829Z,59.80
2023-02-27T08:04:06.175Z,59.78
2023-02-27T08:06:47.269Z,58.01
2023-02-27T08:09:36.587Z,56.02
2023-02-27T08:12:12.351Z,56.72
2023-02-27T08:15:01.482Z,57.39
2023-02-27T08:17:49.002Z,55.67
2023-02-27T08:20:34.576Z,54.46
2023-02-27T08:23:18.411Z,52.61
2023-02-27T08:26:04.493Z,51.61
2023-02-27T08:28:51.647Z,53.94
2023-02-27T08:31:31.946Z,53.89
2023-02-27T08:34:18.431Z,51.24
2023-02-27T08:37:03.902Z,52.74
2023-02-27T08:39:47.060Z,50.77
2023-02-27T08:42:32.721Z,51.88
2023-02-27T08:45:18.091Z,52.32
2023-02-27T08:48:12.517Z,53.98
2023-02-27T08:50:48.483Z,52.65
2023-02-27T08:53:30.945Z,52.32
2023-02-27T08:56:22.932Z,51.67
2023-02-27T08:59:06.123Z,52.07
2023-02-27T09:01:46.783Z,51.97
2023-02-27T09:04:30.684Z,52.10
2023-02-27T09:07:02.600Z,52.26
2023-02-27T09:09:40.878Z,52.91
2023-02-27T09:12:18.838Z,52.03
2023-02-27T09:15:15.883Z,51.41
2023-02-27T09:18:05.637Z,50.83
2023-02-27T09:20:56.476Z,50.02
2023-02-27T09:23:39.897Z,50.23
2023-02-27T09:26:19.512Z,50.92
2023-02-27T09:28:57.493Z,51.99
2023-02-27T09:31:35.623Z,50.38
2023-02-27T09:34:22.037Z,49.83
2023-02-27T09:37:12.336Z,49.61
2023-02-27T09:39:56.963Z,50.49
2023-02-27T09:42:46.554Z,50.27
2023-02-27T09:45:39.464Z,48.59
2023-02-27T09:49:05.458Z,49.41
2023-02-27T09:51:40.645Z,48.96
2023-02-27T09:54:23.805Z,50.49
2023-02-27T09:57:17.441Z,48.92
2023-02-27T10:00:18.464Z,48.25
2023-02-27T10:03:13.808Z,49.47
2023-02-27T10:06:18.431Z,49.47
2023-02-27T10:09:14.378Z,49.10
2023-02-27T10:12:21.953Z,49.68
2023-02-27T10:15:07.954Z,48.57
2023-02-27T10:18:01.339Z,48.78
2023-02-27T10:21:03.136Z,48.10
2023-02-27T10:23:53.599Z,49.79
2023-02-27T10:26:36.023Z,48.95
2023-02-27T10:29:56.264Z,47.87
2023-02-27T10:32:44.516Z,48.08
2023-02-27T10:35:44.560Z,49.40
2023-02-27T10:38:37.341Z,47.89
2023-02-27T10:41:17.379Z,48.68
2023-02-27T10:44:01.473Z,47.44
2023-02-27T10:46:41.869Z,48.25
2023-02-27T10:49:29.994Z,48.71
2023-02-27T10:52:22.557Z,49.29
2023-02-27T10:55:49.820Z,47.54
2023-02-27T10:58:35.091Z,48.31
2023-02-27T11:01:29.877Z,46.31
2023-02-27T11:04:08.782Z,47.32
2023-02-27T11:07:00.600Z,46.99
2023-02-27T11:09:44.913Z,46.74
2023-02-27T11:12:43.568Z,46.97
2023-02-27T11:15:42.419Z,46.83
2023-02-27T11:18:40.283Z,46.63
2023-02-27T11:21:46.390Z,46.15
2023-02-27T11:24:46.104Z,45.88
2023-02-27T11:27:26.656Z,46.58
2023-02-27T11:30:22.669Z,46.27
2023-02-27T11:33:06.442Z,47.62
2023-02-27T11:36:02.569Z,46.32
2023-02-27T11:38:46.132Z,48.66
2023-02-27T11:41:48.592Z,48.03
2023-02-27T11:44:50.736Z,46.54
2023-02-27T11:48:01.395Z,47.53
2023-02-27T11:51:40.255Z,46.33
2023-02-27T11:54:41.002Z,46.95
2023-02-27T11:57:40.438Z,46.70
2023-02-27T12:00:49.246Z,45.61
2023-02-27T12:04:24.505Z,46.53
2023-02-27T12:07:18.158Z,46.13
2023-02-27T12:10:02.609Z,47.29
2023-02-27T12:13:01.864Z,46.16
2023-02-27T12:16:01.568Z,46.44
2023-02-27T12:18:51.946Z,45.72
2023-02-27T12:21:39.837Z,47.10
2023-02-27T12:24:54.786Z,45.96
2023-02-27T12:27:51.966Z,45.92
2023-02-27T12:31:01.572Z,45.66
2023-02-27T12:34:26.343Z,47.06
2023-02-27T12:37:39.046Z,45.93
2023-02-27T12:40:27.430Z,46.93
2023-02-27T12:43:25.430Z,46.01
2023-02-27T12:46:31.404Z,44.48
2023-02-27T12:49:36.960Z,45.12
2023-02-27T12:52:41.156Z,45.84
2023-02-27T12:55:44.088Z,44.25
2023-02-27T12:59:07.504Z,45.90
2023-02-27T13:02:17.054Z,44.85
2023-02-27T13:05:20.431Z,44.04
2023-02-27T13:08:30.421Z,44.20
2023-02-27T13:11:33.456Z,44.36
2023-02-27T13:14:35.843Z,43.87
2023-02-27T13:17:44.626Z,44.94
2023-02-27T13:21:06.198Z,45.01
2023-02-27T13:24:01.388Z,42.65
2023-02-27T13:26:58.177Z,43.35
2023-02-27T13:30:21.280Z,44.44
2023-02-27T13:33:17.846Z,43.24
2023-02-27T13:36:39.140Z,43.76
2023-02-27T13:40:15.077Z,43.62
2023-02-27T13:43:02.156Z,43.63
2023-02-27T13:45:51.673Z,43.93
2023-02-27T13:48:57.865Z,40.87
2023-02-27T13:51:47.773Z,42.54
2023-02-27T13:54:33.528Z,43.13
2023-02-27T13:57:31.444Z,42.53
2023-02-27T14:00:32.459Z,43.72
2023-02-27T14:06:34.973Z,44.34
2023-02-27T14:09:22.590Z,43.94
2023-02-27T14:12:33.405Z,46.20
2023-02-27T14:16:00.461Z,43.55
2023-02-27T14:18:55.404Z,44.07
2023-02-27T14:22:22.270Z,43.90
2023-02-27T14:25:32.430Z,45.04
2023-02-27T14:28:38.068Z,44.26
2023-02-27T14:31:41.366Z,44.53
2023-02-27T14:34:26.092Z,45.75
2023-02-27T14:37:21.421Z,45.79
2023-02-27T14:40:21.208Z,45.33
2023-02-27T14:43:22.634Z,45.17
2023-02-27T14:46:09.603Z,44.06
2023-02-27T14:49:13.126Z,45.40
2023-02-27T14:52:05.784Z,44.13
2023-02-27T14:54:49.213Z,44.08
2023-02-27T14:57:32.556Z,42.56
2023-02-27T15:00:33.166Z,43.61
2023-02-27T15:04:02.380Z,44.26
2023-02-27T15:07:05.020Z,43.61
2023-02-27T15:09:52.598Z,42.44
2023-02-27T15:12:48.521Z,44.26
2023-02-27T15:15:41.723Z,43.23
2023-02-27T15:18:29.363Z,43.25
2023-02-27T15:21:08.955Z,43.57
2023-02-27T15:24:09.527Z,44.39
2023-02-27T15:26:48.937Z,44.22
2023-02-27T15:29:47.081Z,43.91
2023-02-27T15:32:44.162Z,44.54
2023-02-27T15:35:37.654Z,44.09
2023-02-27T15:38:38.496Z,42.13
2023-02-27T15:41:21.458Z,40.33
2023-02-27T15:44:11.198Z,40.96
2023-02-27T15:46:50.450Z,41.20
2023-02-27T15:49:35.420Z,42.56
2023-02-27T15:52:36.073Z,42.89
2023-02-27T15:55:18.471Z,44.08
2023-02-27T15:58:22.565Z,44.36
2023-02-27T16:01:27.693Z,45.10
2023-02-27T16:04:25.515Z,45.92
2023-02-27T16:07:30.088Z,47.25
2023-02-27T16:10:26.228Z,46.88
2023-02-27T16:13:21.616Z,47.06
2023-02-27T16:16:41.663Z,47.23
2023-02-27T16:20:02.537Z,48.90
2023-02-27T16:23:31.594Z,49.16
2023-02-27T16:26:32.686Z,50.13
2023-02-27T16:29:41.090Z,50.96
2023-02-27T16:32:50.666Z,53.30
2023-02-27T16:35:54.676Z,55.25
2023-02-27T16:38:32.430Z,56.93
2023-02-27T16:41:22.973Z,58.28
2023-02-27T16:44:12.085Z,60.51
2023-02-27T16:46:59.366Z,61.37
2023-02-27T16:49:52.394Z,64.49
2023-02-27T16:53:05.209Z,67.89
2023-02-27T16:55:55.837Z,66.17
2023-02-27T16:58:49.209Z,69.98
2023-02-27T17:01:39.887Z,71.35
2023-02-27T17:04:30.629Z,70.39
2023-02-27T17:07:18.711Z,70.00
2023-02-27T17:10:08.572Z,73.51
2023-02-27T17:12:58.514Z,75.97
2023-02-27T17:15:45.516Z,76.61
2023-02-27T17:18:40.357Z,77.16
2023-02-27T17:21:38.471Z,79.27
2023-02-27T17:24:17.018Z,81.42
2023-02-27T17:27:22.008Z,82.10
2023-02-27T17:30:07.208Z,82.80
2023-02-27T17:32:59.918Z,81.71
2023-02-27T17:35:52.591Z,80.09
2023-02-27T17:41:55.554Z,79.05
2023-02-27T17:44:51.247Z,74.84
2023-02-27T17:47:53.598Z,74.67
2023-02-27T17:50:38.795Z,71.45
2023-02-27T17:53:23.514Z,68.50
2023-02-27T17:56:07.691Z,68.13
2023-02-27T17:58:54.376Z,67.28
2023-02-27T18:02:08.458Z,67.35
2023-02-27T18:05:01.999Z,66.63
2023-02-27T18:07:56.829Z,66.17
2023-02-27T18:10:43.559Z,66.86
2023-02-27T18:13:35.510Z,66.44
2023-02-27T18:19:31.353Z,66.66
2023-02-27T18:22:28.599Z,66.91
2023-02-27T18:25:25.120Z,67.20
2023-02-27T18:28:04.432Z,67.58
2023-02-27T18:30:58.900Z,67.70
2023-02-27T18:33:53.417Z,67.75
2023-02-27T18:36:42.271Z,68.49
2023-02-27T18:39:36.867Z,68.90
2023-02-27T18:42:59.509Z,69.71
2023-02-27T18:45:48.426Z,69.48
2023-02-27T18:48:40.149Z,69.99
2023-02-27T18:51:31.787Z,69.68
2023-02-27T18:54:19.399Z,69.99
2023-02-27T18:57:11.512Z,69.78
2023-02-27T19:00:04.643Z,70.72
2023-02-27T19:02:54.791Z,70.71
2023-02-27T19:08:46.636Z,70.26
2023-02-27T19:11:36.712Z,70.27
2023-02-27T19:14:16.402Z,70.13
2023-02-27T19:17:10.600Z,70.09
2023-02-27T19:19:57.336Z,70.24
2023-02-27T19:22:45.591Z,70.10
2023-02-27T19:25:53.227Z,70.36
2023-02-27T19:28:32.632Z,69.96
2023-02-27T19:31:15.575Z,69.71
2023-02-27T19:34:05.473Z,69.56
2023-02-27T19:36:49.149Z,69.65
2023-02-27T19:39:42.357Z,70.35
2023-02-27T19:42:23.215Z,70.67
2023-02-27T19:45:09.805Z,71.39
2023-02-27T19:48:02.560Z,72.46
2023-02-27T19:50:49.862Z,71.88
2023-02-27T19:53:33.907Z,71.59
2023-02-27T19:56:25.099Z,71.81
2023-02-27T19:59:17.510Z,71.61
2023-02-27T20:02:05.349Z,71.74
2023-02-27T20:04:46.018Z,71.90
2023-02-27T20:07:35.461Z,71.59
2023-02-27T20:10:18.690Z,71.82
2023-02-27T20:13:08.000Z,71.15
2023-02-27T20:16:03.294Z,71.12
2023-02-27T20:18:54.977Z,71.32
2023-02-27T20:21:48.814Z,70.90
2023-02-27T20:24:31.958Z,70.63
2023-02-27T20:27:19.423Z,70.82
2023-02-27T20:30:03.476Z,70.72
2023-02-27T20:32:52.854Z,70.88
2023-02-27T20:35:37.987Z,71.00
2023-02-27T20:38:32.471Z,72.17
2023-02-27T20:41:29.377Z,72.53
2023-02-27T20:44:15.996Z,73.39
2023-02-27T20:46:54.858Z,73.57
2023-02-27T20:49:36.466Z,74.64
2023-02-27T20:52:29.208Z,74.87
2023-02-27T20:55:23.562Z,75.66
2023-02-27T20:58:10.391Z,76.38
2023-02-27T21:01:00.130Z,75.83
2023-02-27T21:03:50.972Z,76.32
2023-02-27T21:06:31.472Z,76.69
2023-02-27T21:09:12.975Z,77.71
2023-02-27T21:11:56.205Z,78.04
2023-02-27T21:14:32.619Z,77.78
2023-02-27T21:17:10.815Z,79.15
2023-02-27T21:20:00.039Z,80.41
2023-02-27T21:22:35.739Z,79.48
2023-02-27T21:25:25.000Z,79.02
2023-02-27T21:28:14.277Z,78.79
2023-02-27T21:30:59.509Z,79.63
2023-02-27T21:33:41.001Z,81.28
2023-02-27T21:36:49.508Z,80.86
2023-02-27T21:39:29.348Z,82.88
2023-02-27T21:42:21.039Z,83.53
2023-02-27T21:45:10.831Z,83.88
2023-02-27T21:47:55.820Z,84.03
2023-02-27T21:50:42.299Z,84.12
2023-02-27T21:53:37.151Z,84.46
2023-02-27T21:56:27.778Z,87.10
2023-02-27T21:59:12.314Z,87.25
2023-02-27T22:01:57.704Z,86.16
2023-02-27T22:04:44.064Z,87.25
2023-02-27T22:07:32.526Z,87.04
2023-02-27T22:10:11.361Z,87.28
2023-02-27T22:12:51.494Z,87.21
2023-02-27T22:15:35.786Z,87.61
2023-02-27T22:18:26.655Z,87.88
2023-02-27T22:21:16.137Z,89.20
2023-02-27T22:24:00.961Z,89.44
2023-02-27T22:26:41.669Z,90.74
2023-02-27T22:29:17.139Z,91.06
2023-02-27T22:32:05.962Z,91.27
2023-02-27T22:34:54.811Z,91.24
2023-02-27T22:37:39.814Z,91.78
2023-02-27T22:40:27.283Z,92.07
2023-02-27T22:43:15.824Z,91.83
2023-02-27T22:45:56.481Z,92.82
2023-02-27T22:48:38.476Z,93.65
2023-02-27T22:54:26.794Z,94.15
2023-02-27T22:57:10.851Z,94.34
2023-02-27T22:59:55.502Z,94.58
2023-02-27T23:02:45.113Z,94.88
2023-02-27T23:05:31.880Z,96.36
2023-02-27T23:08:13.500Z,96.74
2023-02-27T23:10:59.476Z,97.06
2023-02-27T23:13:41.862Z,97.70
2023-02-27T23:16:25.233Z,97.60
2023-02-27T23:19:06.639Z,98.40
2023-02-27T23:21:47.795Z,98.82
2023-02-27T23:24:32.479Z,100.00
2023-02-27T23:27:25.432Z,100.00
2023-02-27T23:30:03.417Z,100.00
2023-02-27T23:32:50.410Z,100.00
2023-02-27T23:35:27.141Z,100.00
2023-02-27T23:38:10.428Z,100.00
2023-02-27T23:40:59.892Z,100.00
2023-02-27T23:43:51.303Z,100.00
2023-02-27T23:46:35.325Z,100.00
2023-02-27T23:49:21.488Z,100.00
2023-02-27T23:52:00.443Z,100.00
2023-02-27T23:54:43.478Z,100.00
2023-02-27T23:57:22.440Z,100.00
